createdAt,value
2019-04-23T00:01:56.991Z,23.47
2019-04-23T00:04:26.583Z,23.55
2019-04-23T00:07:08.129Z,24.45
2019-04-23T00:09:42.347Z,24.02
2019-04-23T00:12:34.369Z,24.40
2019-04-23T00:17:32.050Z,24.72
2019-04-23T00:20:03.814Z,23.60
2019-04-23T00:22:51.776Z,23.67
2019-04-23T00:25:43.638Z,23.38
2019-04-23T00:28:07.922Z,24.40
2019-04-23T00:33:07.462Z,24.05
2019-04-23T00:35:34.140Z,24.18
2019-04-23T00:38:05.262Z,23.65
2019-04-23T00:45:44.595Z,24.70
2019-04-23T00:48:19.633Z,24.07
2019-04-23T00:53:42.046Z,24.77
2019-04-23T00:58:33.699Z,23.83
2019-04-23T01:01:31.781Z,23.73
2019-04-23T01:03:58.043Z,25.05
2019-04-23T01:06:29.112Z,24.70
2019-04-23T01:09:02.139Z,24.80
2019-04-23T01:11:52.236Z,24.70
2019-04-23T01:14:23.005Z,23.87
2019-04-23T01:16:48.349Z,25.97
2019-04-23T01:19:31.662Z,24.98
2019-04-23T01:21:41.214Z,23.90
2019-04-23T01:24:17.738Z,23.47
2019-04-23T01:27:39.057Z,24.92
2019-04-23T01:29:58.509Z,23.52
2019-04-23T01:32:35.049Z,24.15
2019-04-23T01:35:20.288Z,22.70
2019-04-23T01:40:11.827Z,24.30
2019-04-23T01:45:20.407Z,24.57
2019-04-23T01:50:20.178Z,24.43
2019-04-23T01:52:51.962Z,24.57
2019-04-23T01:55:24.461Z,25.43
2019-04-23T01:58:09.385Z,24.82
2019-04-23T02:00:39.160Z,24.65
2019-04-23T02:03:09.440Z,24.65
2019-04-23T02:10:45.761Z,24.35
2019-04-23T02:13:14.257Z,24.20
2019-04-23T02:18:11.490Z,26.05
2019-04-23T02:20:47.280Z,26.60
2019-04-23T02:25:50.896Z,26.55
2019-04-23T02:28:42.875Z,26.15
2019-04-23T02:31:12.138Z,25.88
2019-04-23T02:38:46.278Z,27.15
2019-04-23T02:41:27.693Z,26.77
2019-04-23T02:43:35.546Z,26.02
2019-04-23T02:46:09.068Z,26.37
2019-04-23T02:48:54.685Z,26.02
2019-04-23T02:59:05.644Z,28.05
2019-04-23T03:04:00.041Z,26.35
2019-04-23T03:06:43.411Z,26.17
2019-04-23T03:09:21.031Z,25.82
2019-04-23T03:11:41.650Z,25.23
2019-04-23T03:19:58.560Z,27.32
2019-04-23T03:28:11.906Z,26.90
2019-04-23T03:32:01.788Z,25.45
2019-04-23T03:41:29.998Z,26.60
2019-04-23T03:44:16.614Z,27.42
2019-04-23T03:46:46.753Z,27.73
2019-04-23T03:48:57.476Z,25.75
2019-04-23T03:54:26.197Z,26.52
2019-04-23T04:02:45.886Z,26.20
2019-04-23T04:05:01.283Z,27.60
2019-04-23T04:10:35.996Z,26.12
2019-04-23T04:13:20.170Z,25.55
2019-04-23T04:15:57.256Z,26.55
2019-04-23T04:23:27.643Z,25.52
2019-04-23T04:28:51.450Z,23.85
2019-04-23T04:31:21.618Z,25.17
2019-04-23T04:34:24.777Z,24.35
2019-04-23T04:39:05.319Z,25.77
2019-04-23T04:41:52.118Z,25.08
2019-04-23T04:44:26.342Z,24.67
2019-04-23T04:46:47.662Z,25.32
2019-04-23T04:49:23.690Z,24.47
2019-04-23T04:54:22.987Z,26.40
2019-04-23T04:56:49.827Z,26.02
2019-04-23T04:59:17.667Z,25.80
2019-04-23T05:07:04.095Z,22.40
2019-04-23T05:09:31.922Z,22.75
2019-04-23T05:12:01.150Z,22.67
2019-04-23T05:14:26.933Z,21.95
2019-04-23T05:16:50.685Z,23.27
2019-04-23T05:19:31.594Z,22.07
2019-04-23T05:22:05.330Z,21.95
2019-04-23T05:24:31.845Z,21.52
2019-04-23T05:26:46.533Z,21.62
2019-04-23T05:29:20.361Z,20.45
2019-04-23T05:31:53.458Z,20.85
2019-04-23T05:34:23.870Z,20.68
2019-04-23T05:36:58.374Z,20.25
2019-04-23T05:39:29.119Z,20.65
2019-04-23T05:41:55.748Z,20.27
2019-04-23T05:44:29.942Z,19.82
2019-04-23T05:47:01.262Z,19.12
2019-04-23T05:49:31.777Z,18.87
2019-04-23T05:52:04.338Z,19.67
2019-04-23T05:57:01.769Z,19.12
2019-04-23T05:59:36.069Z,20.12
2019-04-23T06:02:07.572Z,20.95
2019-04-23T06:04:35.885Z,21.23
2019-04-23T06:09:41.769Z,21.42
2019-04-23T06:19:48.404Z,21.82
2019-04-23T06:24:46.738Z,24.20
2019-04-23T06:27:22.153Z,23.02
2019-04-23T06:29:43.195Z,23.47
2019-04-23T06:32:12.986Z,22.67
2019-04-23T06:34:50.166Z,24.23
2019-04-23T06:37:16.039Z,25.62
2019-04-23T06:39:51.942Z,25.20
2019-04-23T06:42:20.719Z,28.87
2019-04-23T06:47:21.862Z,25.85
2019-04-23T06:52:21.290Z,22.50
2019-04-23T06:57:48.084Z,21.25
2019-04-23T07:00:02.309Z,19.50
2019-04-23T07:02:34.280Z,21.65
2019-04-23T07:05:06.524Z,20.23
2019-04-23T07:07:52.836Z,19.27
2019-04-23T07:10:07.320Z,18.67
2019-04-23T07:15:29.074Z,19.00
2019-04-23T07:17:42.443Z,18.87
2019-04-23T07:20:14.903Z,19.07
2019-04-23T07:25:12.849Z,18.32
2019-04-23T07:28:06.934Z,18.67
2019-04-23T07:32:49.874Z,17.80
2019-04-23T07:35:15.881Z,17.77
2019-04-23T07:37:57.066Z,17.07
2019-04-23T07:40:37.167Z,16.60
2019-04-23T07:43:15.570Z,16.65
2019-04-23T07:46:16.752Z,17.17
2019-04-23T07:48:43.673Z,15.65
2019-04-23T07:51:14.779Z,16.07
2019-04-23T07:54:01.302Z,15.85
2019-04-23T07:56:27.525Z,16.40
2019-04-23T07:59:15.954Z,14.58
2019-04-23T08:01:47.115Z,14.70
2019-04-23T08:04:08.840Z,15.63
2019-04-23T08:06:50.208Z,14.30
2019-04-23T08:11:56.170Z,13.83
2019-04-23T08:15:08.840Z,14.47
2019-04-23T08:17:23.877Z,14.40
2019-04-23T08:22:28.680Z,14.10
2019-04-23T08:25:15.321Z,13.58
2019-04-23T08:27:43.876Z,14.23
2019-04-23T08:30:20.908Z,14.05
2019-04-23T08:32:57.309Z,13.80
2019-04-23T08:35:35.886Z,13.85
2019-04-23T08:43:31.462Z,13.22
2019-04-23T08:45:55.008Z,12.65
2019-04-23T08:48:41.409Z,12.70
2019-04-23T08:50:57.772Z,11.97
2019-04-23T08:56:12.390Z,11.53
2019-04-23T08:58:31.994Z,11.97
2019-04-23T09:03:30.091Z,12.58
2019-04-23T09:08:48.422Z,13.05
2019-04-23T09:18:33.502Z,11.65
2019-04-23T09:21:05.835Z,11.57
2019-04-23T09:23:39.168Z,11.10
2019-04-23T09:26:02.520Z,11.70
2019-04-23T09:31:42.025Z,11.18
2019-04-23T09:33:58.669Z,11.85
2019-04-23T09:39:32.986Z,12.93
2019-04-23T09:42:11.314Z,14.18
2019-04-23T09:45:05.346Z,13.20
2019-04-23T09:47:55.204Z,13.22
2019-04-23T09:50:16.733Z,13.15
2019-04-23T09:52:59.094Z,13.05
2019-04-23T09:55:22.454Z,12.63
2019-04-23T09:57:49.458Z,13.30
2019-04-23T10:00:25.595Z,12.68
2019-04-23T10:02:41.266Z,11.90
2019-04-23T10:05:07.325Z,12.18
2019-04-23T10:07:38.203Z,12.50
2019-04-23T10:09:57.381Z,13.32
2019-04-23T10:12:28.026Z,12.53
2019-04-23T10:17:28.381Z,12.43
2019-04-23T10:19:58.303Z,11.97
2019-04-23T10:22:30.123Z,11.73
2019-04-23T10:24:59.460Z,12.40
2019-04-23T10:27:29.526Z,11.88
2019-04-23T10:30:01.627Z,12.30
2019-04-23T10:32:29.800Z,11.55
2019-04-23T10:35:11.906Z,12.33
2019-04-23T10:37:36.754Z,12.80
2019-04-23T10:40:03.506Z,12.37
2019-04-23T10:42:33.885Z,12.30
2019-04-23T10:45:14.758Z,12.15
2019-04-23T10:51:00.242Z,12.53
2019-04-23T10:53:30.060Z,12.70
2019-04-23T10:58:30.372Z,12.03
2019-04-23T11:06:06.835Z,12.78
2019-04-23T11:08:38.951Z,12.75
2019-04-23T11:11:07.906Z,11.55
2019-04-23T11:16:42.018Z,12.85
2019-04-23T11:21:20.730Z,12.82
2019-04-23T11:26:21.607Z,12.68
2019-04-23T11:28:42.934Z,11.73
2019-04-23T11:31:34.061Z,12.65
2019-04-23T11:33:59.164Z,12.03
2019-04-23T11:39:00.241Z,12.40
2019-04-23T11:41:32.424Z,12.35
2019-04-23T11:43:53.644Z,11.40
2019-04-23T11:49:26.635Z,13.10
2019-04-23T11:51:45.910Z,13.10
2019-04-23T11:54:01.562Z,12.45
2019-04-23T11:59:17.532Z,13.53
2019-04-23T12:06:59.715Z,14.20
2019-04-23T12:09:55.049Z,13.83
2019-04-23T12:12:28.491Z,13.90
2019-04-23T12:14:51.665Z,14.23
2019-04-23T12:20:06.240Z,13.88
2019-04-23T12:22:29.463Z,13.38
2019-04-23T12:27:31.385Z,14.33
2019-04-23T12:30:01.331Z,14.15
2019-04-23T12:35:16.806Z,14.05
2019-04-23T12:37:41.426Z,13.88
2019-04-23T12:40:23.090Z,13.80
2019-04-23T12:45:21.717Z,13.88
2019-04-23T12:53:34.784Z,13.70
2019-04-23T12:56:11.005Z,12.88
2019-04-23T13:01:13.992Z,13.43
2019-04-23T13:03:39.204Z,13.22
2019-04-23T13:06:11.458Z,13.93
2019-04-23T13:08:46.724Z,13.25
2019-04-23T13:11:17.604Z,13.58
2019-04-23T13:13:53.512Z,13.70
2019-04-23T13:18:47.039Z,13.90
2019-04-23T13:21:38.477Z,12.93
2019-04-23T13:23:47.485Z,13.35
2019-04-23T13:26:13.078Z,12.68
2019-04-23T13:29:15.748Z,12.90
2019-04-23T13:34:04.310Z,12.50
2019-04-23T13:36:32.304Z,12.50
2019-04-23T13:38:48.843Z,13.10
2019-04-23T13:41:20.354Z,13.28
2019-04-23T13:44:02.665Z,12.55
2019-04-23T13:46:27.869Z,12.78
2019-04-23T13:48:48.978Z,12.58
2019-04-23T13:53:53.477Z,13.13
2019-04-23T13:56:39.290Z,12.70
2019-04-23T14:01:30.861Z,13.35
2019-04-23T14:04:04.293Z,13.40
2019-04-23T14:06:37.297Z,13.43
2019-04-23T14:11:30.863Z,13.00
2019-04-23T14:16:48.752Z,12.35
2019-04-23T14:19:22.635Z,12.58
2019-04-23T14:21:44.575Z,13.10
2019-04-23T14:26:55.989Z,13.65
2019-04-23T14:29:26.520Z,13.62
2019-04-23T14:31:42.950Z,13.15
2019-04-23T14:36:55.535Z,13.98
2019-04-23T14:39:24.003Z,13.28
2019-04-23T14:41:54.124Z,14.35
2019-04-23T14:44:25.805Z,14.25
2019-04-23T14:47:09.093Z,14.35
2019-04-23T14:49:33.937Z,14.70
2019-04-23T14:52:09.171Z,13.83
2019-04-23T14:59:41.140Z,14.38
2019-04-23T15:02:12.505Z,14.40
2019-04-23T15:04:39.721Z,14.40
2019-04-23T15:07:16.957Z,14.40
2019-04-23T15:10:03.028Z,14.05
2019-04-23T15:12:22.577Z,13.15
2019-04-23T15:14:58.692Z,13.78
2019-04-23T15:17:34.415Z,14.47
2019-04-23T15:20:08.137Z,13.20
2019-04-23T15:22:39.653Z,13.13
2019-04-23T15:25:25.539Z,12.98
2019-04-23T15:32:43.898Z,13.93
2019-04-23T15:35:18.459Z,13.85
2019-04-23T15:40:08.173Z,13.05
2019-04-23T15:42:42.114Z,13.50
2019-04-23T15:47:39.181Z,12.82
2019-04-23T15:50:14.470Z,11.88
2019-04-23T15:52:44.146Z,12.80
2019-04-23T15:55:05.834Z,12.33
2019-04-23T16:00:07.211Z,12.47
2019-04-23T16:02:13.944Z,12.25
2019-04-23T16:04:44.053Z,11.50
2019-04-23T16:07:30.972Z,11.80
2019-04-23T16:10:17.635Z,12.13
2019-04-23T16:12:45.058Z,12.73
2019-04-23T16:15:15.226Z,10.95
2019-04-23T16:22:39.662Z,11.53
2019-04-23T16:27:48.988Z,11.75
2019-04-23T16:30:20.292Z,11.75
2019-04-23T16:33:02.427Z,11.33
2019-04-23T16:35:33.016Z,11.90
2019-04-23T16:38:21.574Z,11.90
2019-04-23T16:40:37.042Z,11.18
2019-04-23T16:43:08.680Z,12.40
2019-04-23T16:45:41.035Z,12.13
2019-04-23T16:50:57.830Z,11.65
2019-04-23T16:53:15.798Z,12.00
2019-04-23T17:00:51.605Z,11.80
2019-04-23T17:05:41.006Z,11.18
2019-04-23T17:10:42.941Z,12.10
2019-04-23T17:15:53.820Z,12.33
2019-04-23T17:18:17.233Z,13.10
2019-04-23T17:20:47.057Z,13.35
2019-04-23T17:25:51.870Z,13.62
2019-04-23T17:31:03.939Z,13.22
2019-04-23T17:33:27.610Z,12.90
2019-04-23T17:38:49.553Z,13.05
2019-04-23T17:41:23.824Z,14.35
2019-04-23T17:44:02.307Z,14.93
2019-04-23T17:46:27.364Z,13.32
2019-04-23T17:49:04.668Z,17.15
2019-04-23T17:51:25.987Z,16.07
2019-04-23T17:54:21.374Z,17.17
2019-04-23T17:56:50.854Z,17.35
2019-04-23T17:59:08.850Z,15.72
2019-04-23T18:01:59.239Z,14.75
2019-04-23T18:04:10.355Z,15.70
2019-04-23T18:06:41.152Z,15.83
2019-04-23T18:09:14.278Z,15.23
2019-04-23T18:11:37.647Z,15.93
2019-04-23T18:14:08.371Z,15.38
2019-04-23T18:19:12.739Z,15.80
2019-04-23T18:21:52.028Z,15.78
2019-04-23T18:27:05.371Z,16.70
2019-04-23T18:29:53.639Z,16.32
2019-04-23T18:33:01.354Z,16.25
2019-04-23T18:37:30.060Z,16.55
2019-04-23T18:40:14.126Z,16.32
2019-04-23T18:42:40.180Z,17.30
2019-04-23T18:45:10.477Z,17.57
2019-04-23T18:47:40.240Z,18.87
2019-04-23T18:50:02.218Z,17.02
2019-04-23T18:52:42.952Z,17.85
2019-04-23T18:55:08.368Z,17.32
2019-04-23T18:57:40.223Z,16.42
2019-04-23T19:00:05.678Z,17.05
2019-04-23T19:02:58.502Z,17.17
2019-04-23T19:05:28.346Z,17.07
2019-04-23T19:11:05.051Z,16.45
2019-04-23T19:15:59.790Z,16.40
2019-04-23T19:18:32.008Z,16.73
2019-04-23T19:21:08.000Z,15.63
2019-04-23T19:23:32.811Z,16.12
2019-04-23T19:25:49.856Z,16.55
2019-04-23T19:31:07.359Z,16.62
2019-04-23T19:33:47.890Z,16.75
2019-04-23T19:38:34.825Z,17.57
2019-04-23T19:41:34.717Z,16.15
2019-04-23T19:56:16.900Z,16.95
2019-04-23T19:58:54.359Z,17.65
2019-04-23T20:09:18.675Z,17.62
2019-04-23T20:13:50.667Z,17.95
2019-04-23T20:18:50.550Z,18.07
2019-04-23T20:21:08.688Z,18.42
2019-04-23T20:24:04.109Z,17.85
2019-04-23T20:26:17.326Z,18.00
2019-04-23T20:32:55.381Z,17.42
2019-04-23T20:34:24.462Z,18.12
2019-04-23T20:36:46.262Z,18.25
2019-04-23T20:39:17.018Z,18.02
2019-04-23T20:44:37.347Z,18.37
2019-04-23T20:47:11.491Z,18.35
2019-04-23T20:49:38.773Z,18.42
2019-04-23T20:57:31.557Z,18.48
2019-04-23T20:59:56.019Z,17.62
2019-04-23T21:02:41.986Z,19.02
2019-04-23T21:05:03.578Z,18.35
2019-04-23T21:07:41.397Z,19.15
2019-04-23T21:10:16.696Z,18.30
2019-04-23T21:12:58.200Z,18.23
2019-04-23T21:17:35.628Z,19.23
2019-04-23T21:20:10.561Z,18.20
2019-04-23T21:22:32.113Z,18.35
2019-04-23T21:25:01.806Z,18.23
2019-04-23T21:27:44.947Z,18.05
2019-04-23T21:30:03.024Z,18.27
2019-04-23T21:38:00.389Z,21.07
2019-04-23T21:43:10.499Z,25.80
2019-04-23T21:45:52.478Z,25.75
2019-04-23T21:50:50.356Z,23.77
2019-04-23T21:53:08.134Z,24.10
2019-04-23T21:55:54.297Z,24.47
2019-04-23T21:58:17.207Z,25.23
2019-04-23T22:00:53.091Z,23.55
2019-04-23T22:03:18.146Z,22.07
2019-04-23T22:05:51.361Z,25.37
2019-04-23T22:08:35.205Z,25.27
2019-04-23T22:10:58.738Z,26.00
2019-04-23T22:16:04.153Z,28.57
2019-04-23T22:18:21.980Z,32.08
2019-04-23T22:20:59.446Z,32.70
2019-04-23T22:23:22.033Z,37.00
2019-04-23T22:25:56.692Z,39.15
2019-04-23T22:28:30.967Z,40.43
2019-04-23T22:31:08.635Z,46.10
2019-04-23T22:33:24.966Z,51.18
2019-04-23T22:36:01.618Z,52.15
2019-04-23T22:40:58.231Z,61.30
2019-04-23T22:43:29.995Z,60.40
2019-04-23T22:48:43.402Z,60.88
2019-04-23T22:51:10.595Z,51.25
2019-04-23T22:53:37.830Z,47.60
2019-04-23T22:56:07.471Z,43.15
2019-04-23T22:58:42.629Z,34.27
2019-04-23T23:01:19.734Z,32.10
2019-04-23T23:03:42.238Z,30.05
2019-04-23T23:06:23.049Z,28.52
2019-04-23T23:08:56.005Z,31.20
2019-04-23T23:11:08.737Z,29.72
2019-04-23T23:16:14.528Z,27.37
2019-04-23T23:18:52.189Z,26.62
2019-04-23T23:23:46.103Z,27.52
2019-04-23T23:26:14.221Z,26.93
2019-04-23T23:28:44.664Z,27.02
2019-04-23T23:33:59.011Z,20.70
2019-04-23T23:36:25.021Z,21.73
2019-04-23T23:39:00.976Z,20.45
2019-04-23T23:41:28.638Z,22.10
2019-04-23T23:44:09.501Z,22.27
2019-04-23T23:46:27.777Z,22.37
2019-04-23T23:48:56.644Z,20.55
2019-04-23T23:51:30.891Z,22.20
2019-04-23T23:54:01.975Z,21.00
2019-04-23T23:56:19.359Z,19.82
2019-04-23T23:59:04.012Z,19.98
